sensor_id;sensor_type;location;lat;lon;timestamp;P1;durP1;ratioP1;P2;durP2;ratioP2
15526;SDS011;7865;50.918;4.510;2023-03-14T00:01:32;3.30;;;1.20;;
15526;SDS011;7865;50.918;4.510;2023-03-14T00:06:34;3.13;;;1.17;;
15526;SDS011;7865;50.918;4.510;2023-03-14T00:11:36;9.27;;;1.40;;
15526;SDS011;7865;50.918;4.510;2023-03-14T00:16:39;11.00;;;1.67;;
15526;SDS011;7865;50.918;4.510;2023-03-14T00:21:41;4.83;;;1.20;;
15526;SDS011;7865;50.918;4.510;2023-03-14T00:26:43;4.70;;;1.47;;
15526;SDS011;7865;50.918;4.510;2023-03-14T00:31:45;6.47;;;1.50;;
15526;SDS011;7865;50.918;4.510;2023-03-14T00:36:47;7.97;;;1.50;;
15526;SDS011;7865;50.918;4.510;2023-03-14T00:41:49;11.50;;;1.67;;
15526;SDS011;7865;50.918;4.510;2023-03-14T00:46:51;5.63;;;1.83;;
15526;SDS011;7865;50.918;4.510;2023-03-14T00:51:53;9.97;;;1.83;;
15526;SDS011;7865;50.918;4.510;2023-03-14T00:56:55;10.27;;;1.70;;
15526;SDS011;7865;50.918;4.510;2023-03-14T01:01:57;9.47;;;1.80;;
15526;SDS011;7865;50.918;4.510;2023-03-14T01:06:59;11.57;;;2.10;;
15526;SDS011;7865;50.918;4.510;2023-03-14T01:12:01;5.87;;;1.47;;
15526;SDS011;7865;50.918;4.510;2023-03-14T01:17:03;7.47;;;1.60;;
15526;SDS011;7865;50.918;4.510;2023-03-14T01:22:05;7.93;;;2.03;;
15526;SDS011;7865;50.918;4.510;2023-03-14T01:27:07;8.87;;;2.07;;
15526;SDS011;7865;50.918;4.510;2023-03-14T01:32:09;9.20;;;2.33;;
15526;SDS011;7865;50.918;4.510;2023-03-14T01:37:11;9.57;;;2.10;;
15526;SDS011;7865;50.918;4.510;2023-03-14T01:42:15;6.97;;;2.10;;
15526;SDS011;7865;50.918;4.510;2023-03-14T01:47:18;7.30;;;1.67;;
15526;SDS011;7865;50.918;4.510;2023-03-14T01:52:42;7.07;;;1.50;;
15526;SDS011;7865;50.918;4.510;2023-03-14T01:57:47;2.77;;;0.60;;
15526;SDS011;7865;50.918;4.510;2023-03-14T02:02:56;7.23;;;1.60;;
15526;SDS011;7865;50.918;4.510;2023-03-14T02:08:05;4.67;;;1.07;;
15526;SDS011;7865;50.918;4.510;2023-03-14T02:13:17;3.30;;;1.00;;
15526;SDS011;7865;50.918;4.510;2023-03-14T02:18:30;4.87;;;0.80;;
15526;SDS011;7865;50.918;4.510;2023-03-14T02:29:20;5.33;;;1.30;;
15526;SDS011;7865;50.918;4.510;2023-03-14T02:34:23;2.23;;;0.80;;
15526;SDS011;7865;50.918;4.510;2023-03-14T02:39:38;2.20;;;0.87;;
15526;SDS011;7865;50.918;4.510;2023-03-14T02:44:48;2.50;;;0.70;;
15526;SDS011;7865;50.918;4.510;2023-03-14T02:49:53;4.00;;;1.13;;
15526;SDS011;7865;50.918;4.510;2023-03-14T02:55:02;2.67;;;0.97;;
15526;SDS011;7865;50.918;4.510;2023-03-14T03:00:06;3.80;;;0.97;;
15526;SDS011;7865;50.918;4.510;2023-03-14T03:05:11;3.10;;;1.30;;
15526;SDS011;7865;50.918;4.510;2023-03-14T03:10:13;6.30;;;1.50;;
15526;SDS011;7865;50.918;4.510;2023-03-14T03:15:16;5.80;;;1.60;;
15526;SDS011;7865;50.918;4.510;2023-03-14T03:20:18;9.10;;;2.10;;
15526;SDS011;7865;50.918;4.510;2023-03-14T03:25:20;6.27;;;1.87;;
15526;SDS011;7865;50.918;4.510;2023-03-14T03:30:25;6.80;;;1.60;;
15526;SDS011;7865;50.918;4.510;2023-03-14T03:35:27;5.57;;;1.57;;
15526;SDS011;7865;50.918;4.510;2023-03-14T03:40:30;5.97;;;1.87;;
15526;SDS011;7865;50.918;4.510;2023-03-14T03:45:32;7.40;;;2.33;;
15526;SDS011;7865;50.918;4.510;2023-03-14T03:50:35;7.90;;;2.03;;
15526;SDS011;7865;50.918;4.510;2023-03-14T03:55:39;7.37;;;2.10;;
15526;SDS011;7865;50.918;4.510;2023-03-14T04:00:44;5.87;;;1.77;;
15526;SDS011;7865;50.918;4.510;2023-03-14T04:05:57;6.67;;;2.40;;
15526;SDS011;7865;50.918;4.510;2023-03-14T04:11:00;8.77;;;2.40;;
15526;SDS011;7865;50.918;4.510;2023-03-14T04:16:23;6.57;;;2.33;;
15526;SDS011;7865;50.918;4.510;2023-03-14T04:21:31;6.27;;;2.10;;
15526;SDS011;7865;50.918;4.510;2023-03-14T04:26:34;7.10;;;2.40;;
15526;SDS011;7865;50.918;4.510;2023-03-14T04:31:36;5.70;;;2.47;;
15526;SDS011;7865;50.918;4.510;2023-03-14T04:36:38;4.73;;;2.73;;
15526;SDS011;7865;50.918;4.510;2023-03-14T04:41:46;6.43;;;2.97;;
15526;SDS011;7865;50.918;4.510;2023-03-14T04:46:48;7.53;;;3.27;;
15526;SDS011;7865;50.918;4.510;2023-03-14T04:51:51;6.03;;;3.00;;
15526;SDS011;7865;50.918;4.510;2023-03-14T04:56:54;16.93;;;4.00;;
15526;SDS011;7865;50.918;4.510;2023-03-14T05:01:57;8.33;;;3.53;;
15526;SDS011;7865;50.918;4.510;2023-03-14T05:07:16;5.67;;;3.50;;
15526;SDS011;7865;50.918;4.510;2023-03-14T05:12:51;5.23;;;3.03;;
15526;SDS011;7865;50.918;4.510;2023-03-14T05:18:16;7.03;;;3.00;;
15526;SDS011;7865;50.918;4.510;2023-03-14T05:23:37;13.23;;;4.07;;
15526;SDS011;7865;50.918;4.510;2023-03-14T05:28:47;4.80;;;3.20;;
15526;SDS011;7865;50.918;4.510;2023-03-14T05:34:08;5.20;;;2.57;;
15526;SDS011;7865;50.918;4.510;2023-03-14T05:39:30;6.70;;;2.47;;
15526;SDS011;7865;50.918;4.510;2023-03-14T05:44:55;3.77;;;1.90;;
15526;SDS011;7865;50.918;4.510;2023-03-14T05:50:18;4.00;;;1.87;;
15526;SDS011;7865;50.918;4.510;2023-03-14T05:55:30;6.20;;;2.30;;
15526;SDS011;7865;50.918;4.510;2023-03-14T06:00:50;5.40;;;3.23;;
15526;SDS011;7865;50.918;4.510;2023-03-14T06:06:07;6.40;;;3.20;;
15526;SDS011;7865;50.918;4.510;2023-03-14T06:11:09;5.50;;;3.03;;
15526;SDS011;7865;50.918;4.510;2023-03-14T06:16:11;5.37;;;2.87;;
15526;SDS011;7865;50.918;4.510;2023-03-14T06:21:15;3.57;;;2.70;;
15526;SDS011;7865;50.918;4.510;2023-03-14T06:26:20;5.43;;;3.03;;
15526;SDS011;7865;50.918;4.510;2023-03-14T06:31:23;4.43;;;2.77;;
15526;SDS011;7865;50.918;4.510;2023-03-14T06:36:30;7.03;;;2.97;;
15526;SDS011;7865;50.918;4.510;2023-03-14T06:41:33;3.40;;;2.50;;
15526;SDS011;7865;50.918;4.510;2023-03-14T06:46:36;11.80;;;5.73;;
15526;SDS011;7865;50.918;4.510;2023-03-14T06:51:38;12.70;;;5.87;;
15526;SDS011;7865;50.918;4.510;2023-03-14T06:56:42;2.83;;;1.60;;
15526;SDS011;7865;50.918;4.510;2023-03-14T07:01:45;0.70;;;0.70;;
15526;SDS011;7865;50.918;4.510;2023-03-14T07:06:47;1.03;;;0.50;;
15526;SDS011;7865;50.918;4.510;2023-03-14T07:11:49;0.80;;;0.80;;
15526;SDS011;7865;50.918;4.510;2023-03-14T07:16:52;1.37;;;0.80;;
15526;SDS011;7865;50.918;4.510;2023-03-14T07:21:54;2.17;;;0.80;;
15526;SDS011;7865;50.918;4.510;2023-03-14T07:27:00;1.67;;;1.10;;
15526;SDS011;7865;50.918;4.510;2023-03-14T07:32:03;3.47;;;2.00;;
15526;SDS011;7865;50.918;4.510;2023-03-14T07:37:05;4.93;;;2.23;;
15526;SDS011;7865;50.918;4.510;2023-03-14T07:42:07;5.00;;;2.97;;
15526;SDS011;7865;50.918;4.510;2023-03-14T07:47:32;4.17;;;2.67;;
15526;SDS011;7865;50.918;4.510;2023-03-14T07:52:34;6.33;;;3.37;;
15526;SDS011;7865;50.918;4.510;2023-03-14T07:57:36;6.60;;;3.83;;
15526;SDS011;7865;50.918;4.510;2023-03-14T08:02:38;5.93;;;3.03;;
15526;SDS011;7865;50.918;4.510;2023-03-14T08:07:40;6.43;;;3.87;;
15526;SDS011;7865;50.918;4.510;2023-03-14T08:12:42;4.10;;;3.37;;
15526;SDS011;7865;50.918;4.510;2023-03-14T08:17:44;11.23;;;4.43;;
15526;SDS011;7865;50.918;4.510;2023-03-14T08:22:46;5.57;;;2.80;;
15526;SDS011;7865;50.918;4.510;2023-03-14T08:27:49;3.33;;;2.97;;
15526;SDS011;7865;50.918;4.510;2023-03-14T08:32:51;3.03;;;2.23;;
15526;SDS011;7865;50.918;4.510;2023-03-14T08:37:53;6.30;;;3.40;;
15526;SDS011;7865;50.918;4.510;2023-03-14T08:42:55;9.23;;;3.93;;
15526;SDS011;7865;50.918;4.510;2023-03-14T08:47:57;2.73;;;2.00;;
15526;SDS011;7865;50.918;4.510;2023-03-14T08:52:59;4.07;;;2.57;;
15526;SDS011;7865;50.918;4.510;2023-03-14T08:58:02;4.90;;;3.53;;
15526;SDS011;7865;50.918;4.510;2023-03-14T09:03:04;6.67;;;3.57;;
15526;SDS011;7865;50.918;4.510;2023-03-14T09:08:06;6.07;;;2.77;;
15526;SDS011;7865;50.918;4.510;2023-03-14T09:13:08;3.80;;;2.07;;
15526;SDS011;7865;50.918;4.510;2023-03-14T09:18:10;7.07;;;3.17;;
15526;SDS011;7865;50.918;4.510;2023-03-14T09:23:12;3.27;;;1.93;;
15526;SDS011;7865;50.918;4.510;2023-03-14T09:28:14;2.03;;;1.83;;
15526;SDS011;7865;50.918;4.510;2023-03-14T09:33:16;7.33;;;3.00;;
15526;SDS011;7865;50.918;4.510;2023-03-14T09:38:19;7.23;;;3.10;;
15526;SDS011;7865;50.918;4.510;2023-03-14T09:43:22;4.20;;;3.33;;
15526;SDS011;7865;50.918;4.510;2023-03-14T09:48:27;6.27;;;3.50;;
15526;SDS011;7865;50.918;4.510;2023-03-14T09:53:42;8.77;;;3.10;;
15526;SDS011;7865;50.918;4.510;2023-03-14T09:58:51;10.70;;;3.37;;
15526;SDS011;7865;50.918;4.510;2023-03-14T10:03:57;8.37;;;3.60;;
15526;SDS011;7865;50.918;4.510;2023-03-14T10:09:02;5.40;;;2.80;;
15526;SDS011;7865;50.918;4.510;2023-03-14T10:14:07;6.37;;;3.17;;
15526;SDS011;7865;50.918;4.510;2023-03-14T10:19:18;6.00;;;2.37;;
15526;SDS011;7865;50.918;4.510;2023-03-14T10:29:33;6.53;;;2.30;;
15526;SDS011;7865;50.918;4.510;2023-03-14T10:34:37;6.53;;;2.00;;
15526;SDS011;7865;50.918;4.510;2023-03-14T10:44:54;2.87;;;1.00;;
15526;SDS011;7865;50.918;4.510;2023-03-14T10:50:19;3.40;;;1.10;;
15526;SDS011;7865;50.918;4.510;2023-03-14T10:55:25;3.57;;;1.47;;
15526;SDS011;7865;50.918;4.510;2023-03-14T11:00:29;1.37;;;0.80;;
15526;SDS011;7865;50.918;4.510;2023-03-14T11:05:38;1.80;;;1.00;;
15526;SDS011;7865;50.918;4.510;2023-03-14T11:10:48;1.57;;;1.10;;
15526;SDS011;7865;50.918;4.510;2023-03-14T11:26:32;0.77;;;0.40;;
15526;SDS011;7865;50.918;4.510;2023-03-14T11:31:54;0.70;;;0.60;;
15526;SDS011;7865;50.918;4.510;2023-03-14T11:37:05;2.07;;;1.20;;
15526;SDS011;7865;50.918;4.510;2023-03-14T11:42:14;1.90;;;0.73;;
15526;SDS011;7865;50.918;4.510;2023-03-14T11:52:37;4.73;;;0.80;;
15526;SDS011;7865;50.918;4.510;2023-03-14T11:57:46;2.33;;;0.90;;
15526;SDS011;7865;50.918;4.510;2023-03-14T12:03:02;2.10;;;1.30;;
15526;SDS011;7865;50.918;4.510;2023-03-14T12:13:50;2.27;;;1.03;;
15526;SDS011;7865;50.918;4.510;2023-03-14T12:18:54;1.50;;;1.20;;
15526;SDS011;7865;50.918;4.510;2023-03-14T12:23:56;2.57;;;1.70;;
15526;SDS011;7865;50.918;4.510;2023-03-14T12:34:02;3.37;;;1.43;;
15526;SDS011;7865;50.918;4.510;2023-03-14T12:39:10;5.40;;;1.87;;
15526;SDS011;7865;50.918;4.510;2023-03-14T12:44:48;8.27;;;1.43;;
15526;SDS011;7865;50.918;4.510;2023-03-14T12:49:53;6.93;;;1.40;;
15526;SDS011;7865;50.918;4.510;2023-03-14T12:55:21;5.70;;;2.03;;
15526;SDS011;7865;50.918;4.510;2023-03-14T13:00:31;8.10;;;3.10;;
15526;SDS011;7865;50.918;4.510;2023-03-14T13:05:35;11.07;;;5.73;;
15526;SDS011;7865;50.918;4.510;2023-03-14T13:10:38;16.13;;;8.97;;
15526;SDS011;7865;50.918;4.510;2023-03-14T13:15:45;8.03;;;3.90;;
15526;SDS011;7865;50.918;4.510;2023-03-14T13:25:57;5.67;;;1.63;;
15526;SDS011;7865;50.918;4.510;2023-03-14T13:31:02;15.50;;;3.30;;
15526;SDS011;7865;50.918;4.510;2023-03-14T13:36:04;13.33;;;2.97;;
15526;SDS011;7865;50.918;4.510;2023-03-14T13:41:07;9.03;;;2.67;;
15526;SDS011;7865;50.918;4.510;2023-03-14T13:46:14;11.53;;;2.93;;
15526;SDS011;7865;50.918;4.510;2023-03-14T13:51:21;18.23;;;4.03;;
15526;SDS011;7865;50.918;4.510;2023-03-14T13:56:25;19.47;;;3.33;;
15526;SDS011;7865;50.918;4.510;2023-03-14T14:01:33;26.53;;;3.97;;
15526;SDS011;7865;50.918;4.510;2023-03-14T14:06:39;18.03;;;3.53;;
15526;SDS011;7865;50.918;4.510;2023-03-14T14:12:35;21.47;;;3.23;;
15526;SDS011;7865;50.918;4.510;2023-03-14T14:17:20;23.03;;;3.97;;
15526;SDS011;7865;50.918;4.510;2023-03-14T14:22:26;23.37;;;3.53;;
15526;SDS011;7865;50.918;4.510;2023-03-14T14:27:32;13.60;;;2.50;;
15526;SDS011;7865;50.918;4.510;2023-03-14T14:32:38;16.77;;;2.03;;
15526;SDS011;7865;50.918;4.510;2023-03-14T14:37:41;30.23;;;2.23;;
15526;SDS011;7865;50.918;4.510;2023-03-14T14:42:45;9.60;;;2.00;;
15526;SDS011;7865;50.918;4.510;2023-03-14T14:47:54;5.80;;;0.80;;
15526;SDS011;7865;50.918;4.510;2023-03-14T14:53:19;0.43;;;0.43;;
15526;SDS011;7865;50.918;4.510;2023-03-14T14:58:24;2.67;;;0.60;;
15526;SDS011;7865;50.918;4.510;2023-03-14T15:03:29;2.30;;;0.50;;
15526;SDS011;7865;50.918;4.510;2023-03-14T15:08:33;2.10;;;0.70;;
15526;SDS011;7865;50.918;4.510;2023-03-14T15:13:35;3.27;;;0.77;;
15526;SDS011;7865;50.918;4.510;2023-03-14T15:18:37;1.63;;;0.60;;
15526;SDS011;7865;50.918;4.510;2023-03-14T15:23:39;3.47;;;2.03;;
15526;SDS011;7865;50.918;4.510;2023-03-14T15:28:41;6.10;;;2.57;;
15526;SDS011;7865;50.918;4.510;2023-03-14T15:33:44;3.50;;;1.03;;
15526;SDS011;7865;50.918;4.510;2023-03-14T15:38:46;6.13;;;1.17;;
15526;SDS011;7865;50.918;4.510;2023-03-14T15:43:50;4.27;;;1.63;;
15526;SDS011;7865;50.918;4.510;2023-03-14T15:48:52;6.97;;;1.00;;
15526;SDS011;7865;50.918;4.510;2023-03-14T15:53:54;4.97;;;1.10;;
15526;SDS011;7865;50.918;4.510;2023-03-14T15:58:56;4.27;;;1.00;;
15526;SDS011;7865;50.918;4.510;2023-03-14T16:03:58;9.70;;;1.67;;
15526;SDS011;7865;50.918;4.510;2023-03-14T16:09:00;6.70;;;1.40;;
15526;SDS011;7865;50.918;4.510;2023-03-14T16:14:02;10.53;;;1.40;;
15526;SDS011;7865;50.918;4.510;2023-03-14T16:19:05;7.63;;;1.80;;
15526;SDS011;7865;50.918;4.510;2023-03-14T16:24:08;9.50;;;1.53;;
15526;SDS011;7865;50.918;4.510;2023-03-14T16:29:10;10.20;;;1.90;;
15526;SDS011;7865;50.918;4.510;2023-03-14T16:34:12;9.53;;;1.97;;
15526;SDS011;7865;50.918;4.510;2023-03-14T16:39:14;8.93;;;1.93;;
15526;SDS011;7865;50.918;4.510;2023-03-14T16:44:16;13.50;;;2.70;;
15526;SDS011;7865;50.918;4.510;2023-03-14T16:49:18;13.60;;;1.90;;
15526;SDS011;7865;50.918;4.510;2023-03-14T16:54:21;9.30;;;1.77;;
15526;SDS011;7865;50.918;4.510;2023-03-14T16:59:23;11.37;;;1.93;;
15526;SDS011;7865;50.918;4.510;2023-03-14T17:04:26;8.40;;;1.87;;
15526;SDS011;7865;50.918;4.510;2023-03-14T17:09:28;10.43;;;2.20;;
15526;SDS011;7865;50.918;4.510;2023-03-14T17:14:32;7.57;;;2.00;;
15526;SDS011;7865;50.918;4.510;2023-03-14T17:19:34;10.03;;;2.23;;
15526;SDS011;7865;50.918;4.510;2023-03-14T17:24:36;6.60;;;1.67;;
15526;SDS011;7865;50.918;4.510;2023-03-14T17:29:39;15.63;;;2.43;;
15526;SDS011;7865;50.918;4.510;2023-03-14T17:34:42;8.77;;;2.50;;
15526;SDS011;7865;50.918;4.510;2023-03-14T17:39:44;10.87;;;1.80;;
15526;SDS011;7865;50.918;4.510;2023-03-14T17:44:46;6.63;;;1.50;;
15526;SDS011;7865;50.918;4.510;2023-03-14T17:49:48;11.23;;;2.27;;
15526;SDS011;7865;50.918;4.510;2023-03-14T17:54:50;10.50;;;1.77;;
15526;SDS011;7865;50.918;4.510;2023-03-14T17:59:52;8.97;;;1.80;;
15526;SDS011;7865;50.918;4.510;2023-03-14T18:04:54;10.50;;;2.10;;
15526;SDS011;7865;50.918;4.510;2023-03-14T18:09:56;14.60;;;2.47;;
15526;SDS011;7865;50.918;4.510;2023-03-14T18:14:58;12.30;;;3.27;;
15526;SDS011;7865;50.918;4.510;2023-03-14T18:20:00;13.73;;;2.67;;
15526;SDS011;7865;50.918;4.510;2023-03-14T18:25:02;8.53;;;3.37;;
15526;SDS011;7865;50.918;4.510;2023-03-14T18:30:04;14.67;;;4.17;;
15526;SDS011;7865;50.918;4.510;2023-03-14T18:35:07;12.27;;;4.53;;
15526;SDS011;7865;50.918;4.510;2023-03-14T18:40:09;14.60;;;4.13;;
15526;SDS011;7865;50.918;4.510;2023-03-14T18:45:14;14.03;;;4.43;;
15526;SDS011;7865;50.918;4.510;2023-03-14T18:50:16;16.30;;;3.93;;
15526;SDS011;7865;50.918;4.510;2023-03-14T18:55:18;16.43;;;4.40;;
15526;SDS011;7865;50.918;4.510;2023-03-14T19:00:20;8.17;;;3.47;;
15526;SDS011;7865;50.918;4.510;2023-03-14T19:05:22;8.97;;;3.00;;
15526;SDS011;7865;50.918;4.510;2023-03-14T19:10:24;10.57;;;2.60;;
15526;SDS011;7865;50.918;4.510;2023-03-14T19:15:27;11.03;;;2.10;;
15526;SDS011;7865;50.918;4.510;2023-03-14T19:20:29;12.43;;;2.10;;
15526;SDS011;7865;50.918;4.510;2023-03-14T19:25:30;8.63;;;2.33;;
15526;SDS011;7865;50.918;4.510;2023-03-14T19:30:33;8.20;;;2.33;;
15526;SDS011;7865;50.918;4.510;2023-03-14T19:35:34;9.37;;;3.40;;
15526;SDS011;7865;50.918;4.510;2023-03-14T19:40:37;15.47;;;2.67;;
15526;SDS011;7865;50.918;4.510;2023-03-14T19:45:41;10.67;;;3.23;;
15526;SDS011;7865;50.918;4.510;2023-03-14T19:50:43;9.73;;;2.80;;
15526;SDS011;7865;50.918;4.510;2023-03-14T19:55:45;11.17;;;3.87;;
15526;SDS011;7865;50.918;4.510;2023-03-14T20:00:48;6.97;;;3.30;;
15526;SDS011;7865;50.918;4.510;2023-03-14T20:05:50;9.03;;;3.13;;
15526;SDS011;7865;50.918;4.510;2023-03-14T20:10:54;9.30;;;4.17;;
15526;SDS011;7865;50.918;4.510;2023-03-14T20:15:56;9.53;;;3.53;;
15526;SDS011;7865;50.918;4.510;2023-03-14T20:20:58;12.57;;;4.37;;
15526;SDS011;7865;50.918;4.510;2023-03-14T20:26:00;14.53;;;4.83;;
15526;SDS011;7865;50.918;4.510;2023-03-14T20:31:06;16.33;;;4.40;;
15526;SDS011;7865;50.918;4.510;2023-03-14T20:36:08;14.50;;;4.77;;
15526;SDS011;7865;50.918;4.510;2023-03-14T20:41:11;14.20;;;4.70;;
15526;SDS011;7865;50.918;4.510;2023-03-14T20:46:13;12.77;;;3.87;;
15526;SDS011;7865;50.918;4.510;2023-03-14T20:51:18;21.13;;;4.23;;
15526;SDS011;7865;50.918;4.510;2023-03-14T20:56:20;12.90;;;4.30;;
15526;SDS011;7865;50.918;4.510;2023-03-14T21:01:22;17.53;;;4.33;;
15526;SDS011;7865;50.918;4.510;2023-03-14T21:06:24;12.23;;;3.80;;
15526;SDS011;7865;50.918;4.510;2023-03-14T21:11:26;12.07;;;4.27;;
15526;SDS011;7865;50.918;4.510;2023-03-14T21:16:28;9.93;;;4.40;;
15526;SDS011;7865;50.918;4.510;2023-03-14T21:21:32;10.00;;;4.50;;
15526;SDS011;7865;50.918;4.510;2023-03-14T21:26:34;14.03;;;4.60;;
15526;SDS011;7865;50.918;4.510;2023-03-14T21:31:37;10.20;;;3.80;;
15526;SDS011;7865;50.918;4.510;2023-03-14T21:36:40;14.37;;;3.53;;
15526;SDS011;7865;50.918;4.510;2023-03-14T21:41:43;13.03;;;3.50;;
15526;SDS011;7865;50.918;4.510;2023-03-14T21:46:46;5.87;;;3.00;;
15526;SDS011;7865;50.918;4.510;2023-03-14T21:51:49;7.10;;;2.40;;
15526;SDS011;7865;50.918;4.510;2023-03-14T21:56:52;5.00;;;2.53;;
15526;SDS011;7865;50.918;4.510;2023-03-14T22:02:00;5.87;;;2.30;;
15526;SDS011;7865;50.918;4.510;2023-03-14T22:07:04;8.13;;;2.80;;
15526;SDS011;7865;50.918;4.510;2023-03-14T22:12:13;6.67;;;2.60;;
15526;SDS011;7865;50.918;4.510;2023-03-14T22:17:20;9.57;;;4.47;;
15526;SDS011;7865;50.918;4.510;2023-03-14T22:22:22;8.67;;;3.90;;
15526;SDS011;7865;50.918;4.510;2023-03-14T22:27:24;10.43;;;4.33;;
15526;SDS011;7865;50.918;4.510;2023-03-14T22:32:26;8.93;;;3.97;;
15526;SDS011;7865;50.918;4.510;2023-03-14T22:37:28;12.27;;;3.80;;
15526;SDS011;7865;50.918;4.510;2023-03-14T22:42:30;19.40;;;4.23;;
15526;SDS011;7865;50.918;4.510;2023-03-14T22:47:32;10.67;;;3.90;;
15526;SDS011;7865;50.918;4.510;2023-03-14T22:52:34;9.47;;;4.93;;
15526;SDS011;7865;50.918;4.510;2023-03-14T22:57:36;11.80;;;3.90;;
15526;SDS011;7865;50.918;4.510;2023-03-14T23:02:38;9.63;;;3.00;;
15526;SDS011;7865;50.918;4.510;2023-03-14T23:07:41;10.30;;;3.90;;
15526;SDS011;7865;50.918;4.510;2023-03-14T23:12:43;8.63;;;3.83;;
15526;SDS011;7865;50.918;4.510;2023-03-14T23:17:48;13.43;;;4.17;;
15526;SDS011;7865;50.918;4.510;2023-03-14T23:22:50;12.47;;;3.43;;
15526;SDS011;7865;50.918;4.510;2023-03-14T23:27:52;10.77;;;3.57;;
15526;SDS011;7865;50.918;4.510;2023-03-14T23:32:54;9.10;;;3.90;;
15526;SDS011;7865;50.918;4.510;2023-03-14T23:37:56;12.37;;;4.30;;
15526;SDS011;7865;50.918;4.510;2023-03-14T23:42:58;11.40;;;4.60;;
15526;SDS011;7865;50.918;4.510;2023-03-14T23:48:00;11.03;;;3.77;;
15526;SDS011;7865;50.918;4.510;2023-03-14T23:53:02;5.03;;;3.47;;
15526;SDS011;7865;50.918;4.510;2023-03-14T23:58:04;9.27;;;4.77;;
